Time;durP1;ratioP1;P1;durP2;ratioP2;P2;SDS_P1;SDS_P2;PMS_P1;PMS_P2;Temp;Humidity;BMP_temperature;BMP_pressure;BME280_temperature;BME280_humidity;BME280_pressure;Samples;Min_cycle;Max_cycle;Signal;HPM_P1;HPM_P2
2022/10/26 00:02:16;;;;;;;20.17;10.48;;;;;;;18.07;55.74;101549.56;4937570;29;20028;-72
2022/10/26 00:04:42;;;;;;;17.15;10.73;;;;;;;18.05;55.54;101546.28;4945510;28;20047;-72
2022/10/26 00:07:07;;;;;;;15.65;10.63;;;;;;;18.04;55.46;101550.09;4934351;29;20040;-73
2022/10/26 00:09:32;;;;;;;16.42;10.55;;;;;;;18.08;56.06;101540.34;4934823;29;20032;-73
2022/10/26 00:11:58;;;;;;;15.23;10.82;;;;;;;18.02;55.62;101536.75;4948402;29;20100;-72
2022/10/26 00:14:23;;;;;;;19.65;11.00;;;;;;;17.91;56.76;101547.75;4934967;29;20035;-72
2022/10/26 00:16:49;;;;;;;15.65;11.45;;;;;;;17.85;56.71;101537.91;4934929;29;20030;-73
2022/10/26 00:19:14;;;;;;;18.30;10.85;;;;;;;17.84;56.56;101534.38;4934515;29;20047;-72
2022/10/26 00:21:40;;;;;;;18.50;11.40;;;;;;;17.92;55.94;101533.09;4934896;29;20492;-73
2022/10/26 00:24:05;;;;;;;20.23;10.57;;;;;;;17.91;56.01;101534.16;4935154;29;20039;-71
2022/10/26 00:26:30;;;;;;;16.83;11.15;;;;;;;17.83;55.70;101530.00;4935142;29;20500;-73
2022/10/26 00:28:56;;;;;;;16.98;11.27;;;;;;;17.79;56.03;101528.06;4935365;29;20019;-73
2022/10/26 00:31:23;;;;;;;16.48;10.85;;;;;;;17.85;55.83;101527.84;4935220;29;20046;-72
2022/10/26 00:33:54;;;;;;;15.85;10.73;;;;;;;17.73;55.65;101529.88;4935217;29;20035;-73
2022/10/26 00:36:20;;;;;;;18.35;11.88;;;;;;;17.79;55.64;101528.88;4932558;29;20186;-73
2022/10/26 00:38:50;;;;;;;15.40;11.18;;;;;;;17.77;55.88;101527.50;4934831;29;20040;-72
2022/10/26 00:41:17;;;;;;;16.92;11.77;;;;;;;17.65;56.17;101524.09;4935356;29;20039;-71
2022/10/26 00:43:42;;;;;;;19.02;11.65;;;;;;;17.79;56.15;101519.91;4934176;29;20511;-72
2022/10/26 00:46:14;;;;;;;22.38;12.82;;;;;;;17.76;55.97;101517.69;4934395;29;20035;-73
2022/10/26 00:48:47;;;;;;;16.10;10.07;;;;;;;17.73;55.47;101512.78;4934390;29;20050;-72
2022/10/26 00:51:21;;;;;;;16.17;11.70;;;;;;;17.73;55.80;101516.31;4945692;28;20070;-73
2022/10/26 00:53:47;;;;;;;18.58;12.63;;;;;;;17.72;55.51;101516.56;4934575;29;20032;-72
2022/10/26 00:56:12;;;;;;;15.70;10.90;;;;;;;17.65;55.71;101511.31;4934818;29;20051;-72
2022/10/26 00:58:39;;;;;;;19.63;10.88;;;;;;;17.68;55.71;101515.44;4937896;29;20038;-72
2022/10/26 01:01:04;;;;;;;18.48;11.35;;;;;;;17.68;55.44;101516.25;4953888;28;20047;-73
2022/10/26 01:03:31;;;;;;;16.95;11.65;;;;;;;17.68;55.63;101510.81;4953553;28;20045;-72
2022/10/26 01:05:57;;;;;;;17.52;10.88;;;;;;;17.71;55.46;101506.78;4935294;28;20050;-72
2022/10/26 01:08:24;;;;;;;19.63;12.18;;;;;;;17.72;55.18;101511.13;4934571;29;20035;-72
2022/10/26 01:10:50;;;;;;;17.40;11.75;;;;;;;17.73;56.03;101497.28;4935351;29;20032;-72
2022/10/26 01:13:16;;;;;;;16.52;11.60;;;;;;;17.75;55.93;101503.28;4934037;29;20130;-71
2022/10/26 01:16:02;;;;;;;14.55;10.80;;;;;;;17.76;56.30;101494.06;4935055;29;20047;-72
2022/10/26 01:18:46;;;;;;;14.50;11.45;;;;;;;17.80;56.21;101488.91;4923669;29;20104;-72
2022/10/26 01:21:21;;;;;;;18.33;13.02;;;;;;;17.83;55.69;101485.66;4913937;29;20119;-73
2022/10/26 01:24:12;;;;;;;18.50;12.77;;;;;;;17.70;56.69;101480.66;4916664;29;20504;-72
2022/10/26 01:26:56;;;;;;;18.30;12.68;;;;;;;17.80;56.63;101484.31;4893235;29;20521;-71
2022/10/26 01:29:47;;;;;;;21.65;12.95;;;;;;;17.98;55.66;101474.97;4893884;29;20033;-72
2022/10/26 01:32:41;;;;;;;20.63;12.63;;;;;;;18.02;56.13;101471.47;4894313;29;20525;-72
2022/10/26 01:35:17;;;;;;;21.88;14.88;;;;;;;18.13;56.00;101469.63;4838312;29;20105;-72
2022/10/26 01:37:48;;;;;;;16.80;13.40;;;;;;;18.03;56.20;101470.38;4838405;29;20043;-72
2022/10/26 01:40:35;;;;;;;24.13;15.65;;;;;;;18.18;55.83;101472.41;4838313;29;20042;-74
2022/10/26 01:43:06;;;;;;;21.38;14.90;;;;;;;18.20;56.21;101468.34;4838563;29;20046;-72
2022/10/26 01:45:34;;;;;;;21.10;14.73;;;;;;;18.24;55.72;101463.19;4838186;29;20607;-72
2022/10/26 01:48:02;;;;;;;22.55;15.45;;;;;;;18.16;56.06;101456.31;4838013;29;20041;-73
2022/10/26 01:50:28;;;;;;;19.92;15.63;;;;;;;18.24;56.64;101461.28;4831287;29;20499;-73
2022/10/26 01:52:54;;;;;;;28.98;15.50;;;;;;;18.33;56.18;101454.31;4823302;29;20050;-71
2022/10/26 01:55:37;;;;;;;22.15;14.93;;;;;;;18.35;56.23;101440.44;4807533;29;20051;-71
2022/10/26 01:58:41;;;;;;;23.75;14.82;;;;;;;18.48;55.91;101441.88;4823106;29;20053;-71
2022/10/26 02:01:28;;;;;;;21.65;14.52;;;;;;;18.38;55.62;101440.72;4769218;29;20520;-73
2022/10/26 02:04:10;;;;;;;24.33;14.63;;;;;;;18.37;55.99;101441.00;4802271;29;20071;-73
2022/10/26 02:06:49;;;;;;;27.90;15.23;;;;;;;18.49;56.08;101444.38;4822676;29;20042;-72
2022/10/26 02:09:33;;;;;;;23.50;14.88;;;;;;;18.40;55.73;101441.28;4815409;29;20528;-72
2022/10/26 02:12:04;;;;;;;21.63;13.90;;;;;;;18.44;56.23;101440.81;4841643;29;20041;-72
2022/10/26 02:14:42;;;;;;;21.40;14.85;;;;;;;18.58;55.76;101431.06;4877937;29;20029;-72
2022/10/26 02:17:17;;;;;;;22.85;14.57;;;;;;;18.66;55.84;101433.28;4862554;29;20509;-73
2022/10/26 02:19:47;;;;;;;20.88;13.82;;;;;;;18.53;55.98;101426.44;4878154;29;20041;-71
2022/10/26 02:22:16;;;;;;;;;;;;;;;18.35;56.33;101418.66;4863054;29;20126;-73
2022/10/26 02:24:43;;;;;;;24.13;16.42;;;;;;;18.45;56.17;101426.09;4885766;29;19926;-72
2022/10/26 02:27:16;;;;;;;26.90;15.50;;;;;;;18.50;56.18;101418.78;4896547;29;20071;-72
2022/10/26 02:29:42;;;;;;;27.67;14.43;;;;;;;18.47;56.29;101418.50;4896618;29;20060;-71
2022/10/26 02:32:09;;;;;;;20.67;13.32;;;;;;;18.46;56.12;101419.56;4896744;29;20053;-75
2022/10/26 02:34:37;;;;;;;19.52;14.10;;;;;;;18.45;55.94;101424.19;4895613;29;20044;-72
2022/10/26 02:37:03;;;;;;;19.92;12.55;;;;;;;18.35;55.96;101416.78;4899221;29;20389;-72
2022/10/26 02:39:31;;;;;;;24.38;12.57;;;;;;;18.39;55.85;101423.31;4917922;29;20044;-73
2022/10/26 02:42:02;;;;;;;25.25;13.52;;;;;;;18.37;56.15;101411.06;4917858;29;20028;-73
2022/10/26 02:44:32;;;;;;;21.40;13.85;;;;;;;18.28;55.85;101418.06;4918219;29;20044;-72
2022/10/26 02:46:58;;;;;;;23.45;12.48;;;;;;;18.25;55.82;101411.25;4918381;29;20037;-72
2022/10/26 02:49:24;;;;;;;20.98;13.32;;;;;;;18.26;55.94;101406.59;4918989;29;20134;-72
2022/10/26 02:51:56;;;;;;;26.95;13.65;;;;;;;18.23;55.76;101407.16;4936879;29;20052;-71
2022/10/26 02:55:07;;;;;;;23.38;11.65;;;;;;;18.16;55.64;101404.63;4935887;29;20034;-72
2022/10/26 02:57:39;;;;;;;21.23;12.23;;;;;;;18.06;55.73;101401.84;4858149;29;20053;-71
2022/10/26 03:00:10;;;;;;;28.48;12.40;;;;;;;17.99;56.24;101395.81;4844149;29;20041;-72
2022/10/26 03:02:36;;;;;;;22.48;11.30;;;;;;;18.14;55.91;101386.97;4840345;29;20069;-72
2022/10/26 03:05:22;;;;;;;16.48;11.30;;;;;;;18.02;55.96;101394.50;4847790;29;20045;-73
2022/10/26 03:07:48;;;;;;;24.75;12.48;;;;;;;17.63;57.20;101391.16;4822041;29;20042;-72
2022/10/26 03:10:13;;;;;;;23.63;13.52;;;;;;;17.77;57.35;101403.25;4821769;29;20534;-72
2022/10/26 03:12:39;;;;;;;22.15;12.50;;;;;;;18.06;56.56;101403.78;4822112;29;20102;-72
2022/10/26 03:15:04;;;;;;;19.00;12.93;;;;;;;18.01;57.03;101404.53;4821563;29;20050;-72
2022/10/26 03:17:30;;;;;;;20.98;12.27;;;;;;;18.17;56.83;101409.03;4821153;29;20066;-72
2022/10/26 03:19:55;;;;;;;25.65;14.25;;;;;;;18.26;56.77;101406.59;4822074;29;20144;-73
2022/10/26 03:22:21;;;;;;;36.13;15.30;;;;;;;18.30;56.47;101403.09;4821317;29;20073;-72
2022/10/26 03:24:47;;;;;;;29.20;13.30;;;;;;;18.28;57.03;101404.44;4830002;29;20675;-71
2022/10/26 03:27:13;;;;;;;21.55;13.70;;;;;;;18.24;57.02;101403.31;4839772;29;20063;-73
2022/10/26 03:29:38;;;;;;;23.77;15.95;;;;;;;18.32;56.99;101400.94;4839605;29;20053;-72
2022/10/26 03:32:04;;;;;;;25.67;13.77;;;;;;;18.32;56.56;101413.72;4840353;29;20053;-73
2022/10/26 03:34:29;;;;;;;30.02;14.73;;;;;;;18.37;56.81;101417.31;4877527;29;20033;-72
2022/10/26 03:36:55;;;;;;;24.90;14.93;;;;;;;18.29;56.55;101416.97;4916490;29;20408;-73
2022/10/26 03:39:20;;;;;;;22.08;14.68;;;;;;;18.46;56.42;101414.09;4916058;29;20134;-71
2022/10/26 03:41:46;;;;;;;24.67;15.20;;;;;;;18.51;56.68;101412.25;4916352;29;20044;-73
2022/10/26 03:44:12;;;;;;;21.40;14.13;;;;;;;18.25;56.66;101410.44;4917009;29;20405;-72
2022/10/26 03:46:37;;;;;;;27.13;13.70;;;;;;;18.54;56.34;101402.72;4916319;29;20033;-74
2022/10/26 03:49:03;;;;;;;26.00;14.30;;;;;;;18.61;56.67;101395.16;4916686;29;20040;-71
2022/10/26 03:51:28;;;;;;;19.30;13.65;;;;;;;18.75;55.71;101391.69;4932629;29;20036;-72
2022/10/26 03:53:53;;;;;;;23.65;15.45;;;;;;;18.83;56.28;101383.00;4935449;29;20035;-72
2022/10/26 03:56:19;;;;;;;28.55;14.90;;;;;;;18.29;57.80;101389.78;4935338;29;20059;-72
2022/10/26 03:58:44;;;;;;;27.05;13.93;;;;;;;18.37;57.74;101397.44;4939470;29;20043;-73
2022/10/26 04:01:10;;;;;;;25.65;14.88;;;;;;;18.66;56.81;101387.84;4950808;28;20492;-73
2022/10/26 04:03:35;;;;;;;24.58;13.93;;;;;;;18.79;56.62;101383.81;4935037;29;20040;-73
2022/10/26 04:06:02;;;;;;;30.33;14.13;;;;;;;18.92;55.93;101378.69;4954022;28;20535;-72
2022/10/26 04:08:28;;;;;;;36.78;13.77;;;;;;;18.40;58.01;101377.84;4952903;28;20043;-73
2022/10/26 04:10:53;;;;;;;23.85;13.48;;;;;;;19.00;56.23;101374.63;4956831;28;20038;-73
2022/10/26 04:13:19;;;;;;;24.35;12.60;;;;;;;18.68;56.70;101380.22;4933945;29;20028;-74
2022/10/26 04:15:44;;;;;;;25.20;12.30;;;;;;;18.81;56.50;101374.28;4934350;29;20414;-74
2022/10/26 04:18:11;;;;;;;31.52;14.88;;;;;;;18.98;56.08;101374.91;4933973;29;20047;-73
2022/10/26 04:20:38;;;;;;;29.98;13.40;;;;;;;18.86;55.85;101368.03;4934244;29;20039;-73
2022/10/26 04:23:05;;;;;;;22.98;12.30;;;;;;;18.37;58.22;101367.50;4934701;29;20039;-72
2022/10/26 04:25:31;;;;;;;19.40;12.95;;;;;;;18.54;57.80;101367.34;4948712;29;20035;-73
2022/10/26 04:27:58;;;;;;;20.92;13.60;;;;;;;18.86;56.91;101377.03;4953627;28;20518;-74
2022/10/26 04:30:24;;;;;;;22.25;14.10;;;;;;;18.69;57.29;101384.56;4953732;28;20126;-72
2022/10/26 04:32:49;;;;;;;25.58;13.75;;;;;;;18.78;56.92;101387.63;4953125;28;20035;-71
2022/10/26 04:35:15;;;;;;;21.77;12.07;;;;;;;18.98;56.53;101382.25;4953971;28;20162;-72
2022/10/26 04:37:40;;;;;;;22.85;12.20;;;;;;;18.76;56.89;101384.34;4954487;28;20522;-72
2022/10/26 04:40:06;;;;;;;18.15;11.90;;;;;;;19.03;56.41;101374.91;4954131;28;20411;-73
2022/10/26 04:42:42;;;;;;;17.48;11.73;;;;;;;19.17;55.92;101375.22;4954236;28;20046;-74
2022/10/26 04:45:09;;;;;;;22.40;10.93;;;;;;;18.93;56.15;101366.69;4953970;28;20035;-72
2022/10/26 04:47:34;;;;;;;25.98;11.77;;;;;;;18.81;56.45;101374.28;4953779;28;20043;-73
2022/10/26 04:50:02;;;;;;;23.02;13.02;;;;;;;19.21;55.73;101377.13;4948166;28;20046;-74
2022/10/26 04:52:27;;;;;;;15.90;10.55;;;;;;;19.20;55.89;101380.13;4934572;29;20051;-72
2022/10/26 04:54:53;;;;;;;16.08;11.43;;;;;;;19.05;56.21;101377.34;4934394;29;20067;-72
2022/10/26 04:57:18;;;;;;;16.95;10.75;;;;;;;18.69;57.49;101383.78;4934280;29;20052;-73
2022/10/26 04:59:43;;;;;;;16.95;11.63;;;;;;;18.89;56.58;101375.66;4933486;29;20066;-71
2022/10/26 05:02:09;;;;;;;16.77;10.02;;;;;;;19.08;56.14;101377.66;4934627;29;20507;-71
2022/10/26 05:04:34;;;;;;;22.88;11.20;;;;;;;18.63;57.90;101377.50;4941492;29;20051;-72
2022/10/26 05:06:59;;;;;;;18.65;10.82;;;;;;;18.98;56.46;101380.34;4953165;28;20035;-71
2022/10/26 05:09:25;;;;;;;15.35;10.60;;;;;;;18.76;57.53;101384.34;4952451;28;20028;-72
2022/10/26 05:11:50;;;;;;;18.65;11.23;;;;;;;18.24;59.57;101382.38;4953241;28;20567;-72
2022/10/26 05:14:16;;;;;;;28.05;12.20;;;;;;;18.85;57.00;101377.31;4953755;29;20031;-73
2022/10/26 05:16:43;;;;;;;18.70;10.35;;;;;;;18.83;57.47;101374.81;4953311;28;20027;-71
2022/10/26 05:19:08;;;;;;;16.80;10.32;;;;;;;19.05;57.19;101370.00;4951860;28;20123;-72
2022/10/26 05:21:34;;;;;;;21.65;9.52;;;;;;;18.79;57.68;101362.84;4953514;28;20135;-73
2022/10/26 05:23:59;;;;;;;13.55;9.95;;;;;;;18.54;57.99;101367.34;4953531;28;20035;-71
2022/10/26 05:26:25;;;;;;;15.38;10.60;;;;;;;18.73;58.26;101354.94;4938036;29;20283;-72
2022/10/26 05:28:51;;;;;;;17.60;10.48;;;;;;;18.79;57.50;101354.66;4937728;29;20028;-72
2022/10/26 05:31:17;;;;;;;14.55;8.80;;;;;;;18.91;58.00;101355.25;4954201;29;20323;-72
2022/10/26 05:33:42;;;;;;;17.85;9.90;;;;;;;18.67;58.04;101356.00;4955166;29;20502;-72
2022/10/26 05:36:07;;;;;;;14.63;9.68;;;;;;;18.78;58.32;101357.66;4957314;28;20079;-72
2022/10/26 05:38:33;;;;;;;16.85;9.65;;;;;;;18.95;57.83;101356.34;4956908;28;20057;-72
2022/10/26 05:41:00;;;;;;;19.83;9.85;;;;;;;18.72;58.14;101354.09;4937218;28;20491;-73
2022/10/26 05:43:26;;;;;;;14.02;9.90;;;;;;;19.01;57.17;101365.34;4938304;29;20167;-72
2022/10/26 05:45:52;;;;;;;13.75;9.23;;;;;;;18.93;57.20;101361.25;4937332;29;20551;-72
2022/10/26 05:48:18;;;;;;;17.70;8.70;;;;;;;18.86;57.33;101365.31;4937594;29;20044;-72
2022/10/26 05:50:43;;;;;;;17.80;9.80;;;;;;;18.91;57.54;101365.31;4937155;29;20099;-72
2022/10/26 05:53:09;;;;;;;16.83;10.40;;;;;;;19.21;56.30;101373.59;4930050;29;20116;-73
2022/10/26 05:55:35;;;;;;;17.00;10.27;;;;;;;18.58;57.79;101374.72;4930960;29;20044;-74
2022/10/26 05:58:00;;;;;;;20.02;10.50;;;;;;;18.97;56.76;101380.59;4935577;29;20040;-71
2022/10/26 06:00:27;;;;;;;17.25;9.95;;;;;;;18.83;56.71;101374.03;4954194;28;20038;-72
2022/10/26 06:03:17;;;;;;;18.90;9.80;;;;;;;18.95;56.70;101374.59;4945384;29;20144;-72
2022/10/26 06:05:56;;;;;;;16.33;9.52;;;;;;;18.65;57.87;101369.88;4929612;29;20067;-73
2022/10/26 06:08:24;;;;;;;17.33;9.75;;;;;;;18.58;57.65;101366.56;4929663;29;20087;-72
2022/10/26 06:10:50;;;;;;;18.88;9.30;;;;;;;18.61;58.04;101365.22;4936879;29;20349;-73
2022/10/26 06:13:16;;;;;;;19.85;9.80;;;;;;;18.78;57.83;101368.56;4936836;29;20036;-71
2022/10/26 06:16:00;;;;;;;16.50;8.95;;;;;;;18.96;56.92;101368.91;4936513;29;20048;-73
2022/10/26 06:18:38;;;;;;;18.13;8.73;;;;;;;19.14;56.23;101371.09;4936388;29;20130;-72
2022/10/26 06:21:14;;;;;;;13.98;9.65;;;;;;;19.03;56.17;101368.63;4935085;29;20044;-72
2022/10/26 06:23:53;;;;;;;14.38;9.25;;;;;;;18.73;57.51;101371.25;4936446;29;20471;-72
2022/10/26 06:26:35;;;;;;;17.25;10.35;;;;;;;19.04;56.09;101370.28;4936795;29;20495;-73
2022/10/26 06:29:11;;;;;;;17.10;8.88;;;;;;;19.15;55.90;101371.94;4935210;29;20044;-73
2022/10/26 06:31:36;;;;;;;16.85;9.82;;;;;;;18.90;56.99;101371.88;4931763;29;20698;-73
2022/10/26 06:34:02;;;;;;;24.83;9.18;;;;;;;18.69;57.29;101376.41;4936183;29;20040;-72
2022/10/26 06:36:29;;;;;;;12.68;8.85;;;;;;;19.00;56.20;101375.47;4950964;28;20055;-73
2022/10/26 06:39:02;;;;;;;15.57;9.50;;;;;;;18.93;56.53;101383.03;4950499;29;20032;-73
2022/10/26 06:41:31;;;;;;;12.52;8.52;;;;;;;18.72;56.98;101394.94;4936105;29;20031;-73
2022/10/26 06:43:56;;;;;;;12.45;9.70;;;;;;;18.79;56.84;101386.53;4936637;29;20095;-72
2022/10/26 06:46:40;;;;;;;16.25;9.23;;;;;;;19.06;55.91;101387.19;4936199;29;20639;-73
2022/10/26 06:49:25;;;;;;;16.52;10.85;;;;;;;18.99;56.42;101389.31;4935910;29;20044;-72
2022/10/26 06:51:54;;;;;;;22.75;9.77;;;;;;;18.79;56.85;101390.06;4935920;29;20040;-74
2022/10/26 06:54:29;;;;;;;16.10;9.60;;;;;;;18.97;56.43;101388.75;4936067;29;20027;-72
2022/10/26 06:56:55;;;;;;;17.17;10.23;;;;;;;18.97;56.51;101391.50;4935834;29;20407;-72
2022/10/26 06:59:44;;;;;;;16.88;9.93;;;;;;;19.16;56.07;101387.22;4945185;29;20019;-72
2022/10/26 07:02:11;;;;;;;14.00;8.93;;;;;;;18.85;56.86;101383.56;4955344;28;20055;-74
2022/10/26 07:04:37;;;;;;;16.63;8.95;;;;;;;19.10;56.27;101389.06;4954959;28;20045;-72
2022/10/26 07:07:03;;;;;;;19.27;11.50;;;;;;;18.96;56.98;101389.88;4954844;28;20039;-72
2022/10/26 07:09:28;;;;;;;36.15;11.05;;;;;;;19.18;56.52;101394.00;4954946;28;20060;-74
2022/10/26 07:11:53;;;;;;;17.88;10.18;;;;;;;19.33;56.33;101393.28;4954949;28;20031;-73
2022/10/26 07:14:19;;;;;;;16.90;9.93;;;;;;;19.57;55.33;101386.22;4955304;29;20046;-71
2022/10/26 07:16:44;;;;;;;14.18;9.48;;;;;;;19.40;55.71;101388.38;4954754;28;20495;-71
2022/10/26 07:19:10;;;;;;;18.38;9.40;;;;;;;19.51;55.77;101383.75;4954604;28;20035;-72
2022/10/26 07:21:35;;;;;;;17.45;9.13;;;;;;;19.40;56.20;101385.63;4954794;28;20162;-72
2022/10/26 07:24:01;;;;;;;12.73;8.27;;;;;;;19.63;56.02;101385.16;4934064;29;20464;-74
2022/10/26 07:26:26;;;;;;;18.55;9.18;;;;;;;19.85;55.09;101387.59;4934088;29;20035;-74
2022/10/26 07:28:52;;;;;;;16.08;8.82;;;;;;;19.76;55.74;101390.06;4933511;29;20457;-73
2022/10/26 07:31:17;;;;;;;18.85;8.07;;;;;;;20.18;54.77;101384.31;4934007;29;20507;-74
2022/10/26 07:33:44;;;;;;;16.60;9.65;;;;;;;20.05;54.98;101388.41;4930739;29;20032;-72
2022/10/26 07:36:10;;;;;;;14.13;7.68;;;;;;;19.88;55.58;101379.69;4923849;29;20031;-73
2022/10/26 07:38:38;;;;;;;17.05;8.98;;;;;;;20.00;55.68;101382.97;4923942;29;20028;-75
2022/10/26 07:41:04;;;;;;;15.52;8.73;;;;;;;19.95;55.52;101388.41;4944845;29;20120;-74
2022/10/26 07:43:30;;;;;;;16.10;8.07;;;;;;;19.53;56.47;101395.22;4935390;29;20044;-73
2022/10/26 07:45:55;;;;;;;14.60;7.88;;;;;;;20.06;54.98;101395.50;4934350;29;20123;-74
2022/10/26 07:48:21;;;;;;;12.77;8.13;;;;;;;19.77;55.63;101399.06;4934845;29;20456;-72
2022/10/26 07:50:46;;;;;;;11.10;8.35;;;;;;;19.83;55.58;101390.59;4935077;29;20658;-72
2022/10/26 07:53:12;;;;;;;13.20;7.20;;;;;;;20.07;54.95;101391.66;4931492;29;20043;-73
2022/10/26 07:55:37;;;;;;;11.60;7.25;;;;;;;19.82;55.68;101404.50;4930231;29;20055;-72
2022/10/26 07:58:03;;;;;;;11.63;8.15;;;;;;;19.98;55.61;101393.31;4927396;29;20035;-73
2022/10/26 08:00:28;;;;;;;17.40;7.40;;;;;;;20.02;55.12;101391.69;4924411;29;20395;-74
2022/10/26 08:02:54;;;;;;;14.10;7.32;;;;;;;20.14;54.76;101392.22;4926899;29;20032;-73
2022/10/26 08:05:20;;;;;;;18.63;8.43;;;;;;;20.05;55.04;101393.84;4928174;29;20036;-72
2022/10/26 08:07:46;;;;;;;16.13;7.90;;;;;;;20.34;54.62;101396.03;4921035;29;20040;-73
2022/10/26 08:10:12;;;;;;;11.57;7.30;;;;;;;19.82;56.10;101399.88;4924645;29;20032;-72
2022/10/26 08:12:38;;;;;;;12.90;6.97;;;;;;;20.33;54.84;101394.38;4927283;29;20039;-73
2022/10/26 08:15:04;;;;;;;9.65;6.35;;;;;;;20.72;54.02;101398.09;4920804;29;20511;-72
2022/10/26 08:17:30;;;;;;;18.33;7.22;;;;;;;20.29;55.28;101402.31;4929415;29;20079;-72
2022/10/26 08:19:55;;;;;;;12.95;7.15;;;;;;;20.10;55.88;101401.22;4927885;29;20031;-70
2022/10/26 08:22:21;;;;;;;13.20;6.50;;;;;;;20.52;54.54;101409.91;4915673;29;20524;-72
2022/10/26 08:24:46;;;;;;;11.57;5.65;;;;;;;20.37;55.13;101415.41;4919013;29;20099;-74
2022/10/26 08:27:15;;;;;;;14.10;5.60;;;;;;;20.23;55.95;101402.59;4933027;29;20031;-72
2022/10/26 08:29:41;;;;;;;9.27;6.15;;;;;;;20.39;55.69;101402.31;4933410;29;20146;-72
2022/10/26 08:32:07;;;;;;;13.68;6.38;;;;;;;20.78;54.34;101394.25;4931201;29;20119;-72
2022/10/26 08:34:33;;;;;;;17.52;6.70;;;;;;;20.66;54.99;101397.31;4933289;29;20030;-73
2022/10/26 08:36:58;;;;;;;12.07;6.30;;;;;;;20.91;54.44;101396.41;4933351;29;20487;-74
2022/10/26 08:39:26;;;;;;;11.52;6.05;;;;;;;21.35;53.36;101397.28;4933265;29;20508;-73
2022/10/26 08:42:00;;;;;;;12.48;5.30;;;;;;;21.06;54.23;101403.72;4933105;29;20123;-72
2022/10/26 08:44:41;;;;;;;9.18;5.10;;;;;;;21.28;53.74;101398.69;4933074;29;20110;-72
2022/10/26 08:47:13;;;;;;;13.07;5.43;;;;;;;21.26;53.63;101398.16;4929791;29;20395;-77
2022/10/26 08:49:43;;;;;;;11.93;5.82;;;;;;;21.62;52.66;101405.84;4932963;29;20040;-78
2022/10/26 08:52:14;;;;;;;15.23;6.43;;;;;;;21.51;53.52;101406.19;4933020;29;20032;-77
2022/10/26 08:54:45;;;;;;;14.35;5.63;;;;;;;21.60;53.20;101429.13;4932834;29;20793;-77
2022/10/26 08:57:40;;;;;;;11.00;4.70;;;;;;;20.75;55.45;101424.88;4930876;29;20127;-76
2022/10/26 09:00:09;;;;;;;13.93;5.10;;;;;;;21.33;54.28;101426.81;4934018;29;20070;-76
2022/10/26 09:02:35;;;;;;;8.30;4.28;;;;;;;21.49;53.77;101428.38;4937125;29;20028;-76
2022/10/26 09:05:00;;;;;;;15.60;4.95;;;;;;;21.59;53.62;101425.56;4938848;29;20140;-77
2022/10/26 09:07:44;;;;;;;14.57;4.45;;;;;;;21.16;54.91;101420.06;4927377;29;20032;-76
2022/10/26 09:10:26;;;;;;;14.90;5.45;;;;;;;21.55;54.21;101408.09;4934446;29;20047;-76
2022/10/26 09:13:08;;;;;;;10.93;4.63;;;;;;;21.31;55.03;101420.00;4933727;29;20361;-76
2022/10/26 09:15:58;;;;;;;13.48;4.38;;;;;;;20.96;55.90;101429.97;4934056;29;20043;-74
2022/10/26 09:18:23;;;;;;;13.70;5.22;;;;;;;21.51;54.26;101428.91;4944316;29;20039;-75
2022/10/26 09:21:13;;;;;;;8.73;4.88;;;;;;;22.19;52.93;101432.50;4937363;29;20044;-78
2022/10/26 09:23:53;;;;;;;8.88;4.65;;;;;;;22.30;52.47;101425.00;4934754;29;20035;-78
2022/10/26 09:26:44;;;;;;;8.05;4.20;;;;;;;22.36;52.89;101419.19;4934874;29;20031;-77
2022/10/26 09:29:12;;;;;;;10.73;4.88;;;;;;;22.47;52.47;101428.94;4936117;29;20154;-77
2022/10/26 09:31:43;;;;;;;8.82;4.18;;;;;;;22.97;51.41;101427.59;4935256;29;20548;-76
2022/10/26 09:34:26;;;;;;;8.70;3.75;;;;;;;22.08;53.43;101436.44;4929106;29;20034;-77
2022/10/26 09:36:54;;;;;;;9.85;4.03;;;;;;;22.51;52.28;101434.66;4925680;29;20028;-77
2022/10/26 09:39:37;;;;;;;8.90;3.97;;;;;;;23.12;50.80;101445.75;4932263;29;20042;-76
2022/10/26 09:42:38;;;;;;;9.35;4.47;;;;;;;22.64;51.92;101442.22;4928658;29;20054;-76
2022/10/26 09:45:34;;;;;;;10.73;3.75;;;;;;;23.36;50.27;101441.06;4870261;29;20045;-78
2022/10/26 09:48:21;;;;;;;7.20;3.45;;;;;;;22.90;51.49;101440.03;4868998;29;20105;-75
2022/10/26 09:50:48;;;;;;;7.00;3.67;;;;;;;22.81;51.84;101450.78;4870371;29;20123;-76
2022/10/26 09:53:14;;;;;;;10.38;3.58;;;;;;;23.24;51.17;101446.13;4869937;29;20037;-75
2022/10/26 09:55:45;;;;;;;8.35;3.25;;;;;;;22.64;52.60;101448.50;4863603;29;20092;-76
2022/10/26 09:58:23;;;;;;;8.55;3.45;;;;;;;23.36;50.99;101443.81;4854263;29;20041;-77
2022/10/26 10:00:50;;;;;;;6.97;3.08;;;;;;;23.71;50.26;101437.81;4859262;29;20049;-76
2022/10/26 10:03:23;;;;;;;9.60;3.10;;;;;;;24.08;49.21;101434.22;4859281;29;20136;-77
2022/10/26 10:05:48;;;;;;;7.90;3.35;;;;;;;24.29;48.97;101428.06;4858502;29;20079;-76
2022/10/26 10:08:25;;;;;;;9.57;3.25;;;;;;;24.10;49.40;101421.81;4843671;29;20048;-76
2022/10/26 10:10:56;;;;;;;12.90;3.35;;;;;;;24.73;48.27;101423.97;4855448;29;20042;-76
2022/10/26 10:13:24;;;;;;;8.98;2.72;;;;;;;25.07;47.52;101424.38;4858131;29;20124;-76
2022/10/26 10:16:02;;;;;;;13.30;2.85;;;;;;;24.94;47.29;101427.97;4857920;29;20038;-75
2022/10/26 10:18:27;;;;;;;10.07;2.40;;;;;;;24.83;47.95;101435.59;4852972;29;20037;-75
2022/10/26 10:20:56;;;;;;;13.32;2.90;;;;;;;24.36;48.99;101447.72;4869225;29;20370;-76
2022/10/26 10:23:27;;;;;;;11.35;2.70;;;;;;;24.56;48.77;101437.47;4898302;29;20050;-76
2022/10/26 10:26:05;;;;;;;6.30;2.40;;;;;;;24.99;47.49;101441.59;4900906;29;20131;-76
2022/10/26 10:28:32;;;;;;;6.80;2.63;;;;;;;25.12;47.60;101447.06;4893579;29;20055;-75
2022/10/26 10:31:19;;;;;;;7.85;2.28;;;;;;;24.67;48.76;101445.22;4897220;29;20033;-75
2022/10/26 10:33:45;;;;;;;8.07;2.60;;;;;;;24.36;49.09;101455.97;4898315;29;20521;-75
2022/10/26 10:36:16;;;;;;;9.15;2.58;;;;;;;24.63;48.98;101454.41;4896176;29;20040;-75
2022/10/26 10:38:44;;;;;;;9.02;2.70;;;;;;;24.92;48.54;101457.69;4913226;29;20404;-76
2022/10/26 10:41:35;;;;;;;6.97;2.50;;;;;;;24.63;48.73;101466.19;4897938;29;20036;-74
2022/10/26 10:44:06;;;;;;;;;;;;;;;24.69;48.49;101475.97;4912048;29;20413;-76
2022/10/26 10:46:32;;;;;;;6.55;2.13;;;;;;;24.65;49.09;101485.94;4899598;29;19919;-76
2022/10/26 10:49:15;;;;;;;13.75;2.83;;;;;;;24.52;49.71;101495.00;4898514;29;20128;-77
2022/10/26 10:51:42;;;;;;;8.43;2.90;;;;;;;24.60;49.43;101494.28;4906316;29;20040;-81
2022/10/26 10:54:33;;;;;;;12.63;2.50;;;;;;;25.23;47.96;101487.03;4917652;29;20039;-76
2022/10/26 10:57:13;;;;;;;7.63;3.00;;;;;;;25.04;48.73;101480.81;4933485;29;20047;-71
2022/10/26 11:00:02;;;;;;;7.75;2.58;;;;;;;24.71;49.48;101490.22;4928800;29;20519;-72
2022/10/26 11:03:15;;;;;;;7.75;2.53;;;;;;;25.20;48.86;101492.31;4912751;29;20134;-73
2022/10/26 11:05:46;;;;;;;8.88;2.70;;;;;;;25.08;49.42;101497.53;4820250;29;20050;-75
2022/10/26 11:08:36;;;;;;;7.30;2.38;;;;;;;25.59;48.12;101505.56;4820397;29;20111;-72
2022/10/26 11:11:24;;;;;;;7.97;3.22;;;;;;;25.24;48.61;101502.41;4818063;29;20683;-72
2022/10/26 11:14:13;;;;;;;7.93;1.88;;;;;;;24.75;50.01;101507.78;4819117;29;20054;-72
2022/10/26 11:16:44;;;;;;;8.68;2.80;;;;;;;25.17;48.97;101510.25;4817145;29;20061;-73
2022/10/26 11:19:23;;;;;;;8.68;2.05;;;;;;;25.98;46.90;101508.50;4820434;29;20090;-73
2022/10/26 11:21:55;;;;;;;3.58;1.95;;;;;;;25.57;46.77;101507.81;4819131;29;20078;-74
2022/10/26 11:24:27;;;;;;;5.90;2.13;;;;;;;26.54;45.41;101506.00;4822248;29;20117;-72
2022/10/26 11:27:03;;;;;;;10.88;1.83;;;;;;;25.89;46.96;101510.34;4820261;29;20083;-74
2022/10/26 11:29:48;;;;;;;8.00;2.00;;;;;;;25.71;47.11;101514.09;4820143;29;20138;-74
2022/10/26 11:32:39;;;;;;;6.25;1.55;;;;;;;26.22;46.30;101516.50;4820371;29;20449;-73